createdAt,value
2022-10-18T00:02:10.418Z,101325.88
2022-10-18T00:04:40.154Z,101326.00
2022-10-18T00:07:08.359Z,101333.06
2022-10-18T00:09:36.570Z,101327.97
2022-10-18T00:12:05.638Z,101327.97
2022-10-18T00:14:33.937Z,101324.00
2022-10-18T00:17:02.832Z,101329.72
2022-10-18T00:19:31.285Z,101327.25
2022-10-18T00:22:01.204Z,101327.38
2022-10-18T00:24:29.679Z,101335.91
2022-10-18T00:26:57.851Z,101332.34
2022-10-18T00:29:26.168Z,101329.53
2022-10-18T00:31:54.636Z,101328.09
2022-10-18T00:34:23.138Z,101335.63
2022-10-18T00:36:51.612Z,101328.63
2022-10-18T00:39:23.027Z,101328.88
2022-10-18T00:41:52.047Z,101332.03
2022-10-18T00:44:57.648Z,101331.16
2022-10-18T00:47:26.295Z,101326.06
2022-10-18T00:49:59.411Z,101326.59
2022-10-18T00:52:30.726Z,101327.19
2022-10-18T00:55:00.975Z,101323.75
2022-10-18T00:57:30.293Z,101326.97
2022-10-18T00:59:58.801Z,101322.66
2022-10-18T01:02:27.676Z,101315.00
2022-10-18T01:04:56.061Z,101321.38
2022-10-18T01:07:54.398Z,101315.47
2022-10-18T01:10:32.388Z,101319.16
2022-10-18T01:13:16.169Z,101319.34
2022-10-18T01:15:53.123Z,101314.56
2022-10-18T01:18:26.805Z,101319.72
2022-10-18T01:21:12.611Z,101319.00
2022-10-18T01:23:56.637Z,101334.00
2022-10-18T01:26:42.046Z,101334.25
2022-10-18T01:29:21.691Z,101332.41
2022-10-18T01:31:59.647Z,101324.31
2022-10-18T01:34:33.732Z,101322.75
2022-10-18T01:37:07.535Z,101316.19
2022-10-18T01:39:39.201Z,101316.97
2022-10-18T01:42:12.550Z,101321.91
2022-10-18T01:44:43.172Z,101320.13
2022-10-18T01:47:15.160Z,101315.03
2022-10-18T01:49:43.614Z,101323.13
2022-10-18T01:52:14.437Z,101317.06
2022-10-18T01:54:45.747Z,101315.34
2022-10-18T01:57:20.234Z,101310.97
2022-10-18T01:59:56.388Z,101313.97
2022-10-18T02:02:39.092Z,101304.50
2022-10-18T02:05:16.043Z,101307.16
2022-10-18T02:08:00.102Z,101312.25
2022-10-18T02:10:42.663Z,101309.94
2022-10-18T02:13:14.107Z,101312.97
2022-10-18T02:15:46.734Z,101307.75
2022-10-18T02:18:20.229Z,101297.41
2022-10-18T02:20:50.253Z,101301.50
2022-10-18T02:23:24.394Z,101299.41
2022-10-18T02:25:54.031Z,101301.41
2022-10-18T02:30:59.422Z,101299.63
2022-10-18T02:33:35.408Z,101296.97
2022-10-18T02:36:08.627Z,101298.63
2022-10-18T02:38:37.866Z,101295.03
2022-10-18T02:41:06.326Z,101303.97
2022-10-18T02:43:35.485Z,101305.53
2022-10-18T02:46:04.470Z,101300.31
2022-10-18T02:48:34.408Z,101301.91
2022-10-18T02:51:02.649Z,101309.78
2022-10-18T02:53:30.871Z,101310.06
2022-10-18T02:55:59.098Z,101308.44
2022-10-18T02:58:27.621Z,101303.09
2022-10-18T03:00:56.117Z,101309.34
2022-10-18T03:03:24.567Z,101309.53
2022-10-18T03:05:54.693Z,101300.97
2022-10-18T03:08:24.406Z,101304.31
2022-10-18T03:10:53.397Z,101297.44
2022-10-18T03:13:22.224Z,101304.06
2022-10-18T03:15:50.684Z,101318.75
2022-10-18T03:18:18.833Z,101314.28
2022-10-18T03:20:47.298Z,101294.38
2022-10-18T03:23:16.911Z,101300.69
2022-10-18T03:25:46.503Z,101295.09
2022-10-18T03:28:16.364Z,101290.88
2022-10-18T03:30:44.949Z,101297.09
2022-10-18T03:33:14.591Z,101297.88
2022-10-18T03:35:43.107Z,101298.75
2022-10-18T03:38:11.547Z,101288.66
2022-10-18T03:40:41.488Z,101295.03
2022-10-18T03:43:09.977Z,101287.03
2022-10-18T03:45:38.216Z,101291.06
2022-10-18T03:48:08.082Z,101296.63
2022-10-18T03:50:36.605Z,101297.69
2022-10-18T03:53:05.103Z,101303.59
2022-10-18T03:55:33.368Z,101298.16
2022-10-18T03:58:03.002Z,101299.16
2022-10-18T04:00:31.598Z,101305.94
2022-10-18T04:03:00.006Z,101301.97
2022-10-18T04:05:30.821Z,101306.72
2022-10-18T04:07:59.199Z,101305.69
2022-10-18T04:10:27.417Z,101308.81
2022-10-18T04:12:56.014Z,101313.03
2022-10-18T04:15:25.633Z,101302.63
2022-10-18T04:17:54.187Z,101313.78
2022-10-18T04:20:22.357Z,101306.06
2022-10-18T04:22:50.907Z,101309.69
2022-10-18T04:25:19.624Z,101306.22
2022-10-18T04:27:47.916Z,101307.16
2022-10-18T04:30:16.554Z,101305.38
2022-10-18T04:32:46.281Z,101295.75
2022-10-18T04:35:14.799Z,101298.38
2022-10-18T04:37:43.074Z,101288.16
2022-10-18T04:40:12.468Z,101289.34
2022-10-18T04:42:41.703Z,101288.69
2022-10-18T04:45:10.686Z,101290.78
2022-10-18T04:47:38.909Z,101291.47
2022-10-18T04:50:09.644Z,101297.28
2022-10-18T04:52:38.182Z,101299.16
2022-10-18T04:55:07.112Z,101298.03
2022-10-18T04:57:35.443Z,101300.75
2022-10-18T05:00:03.823Z,101302.34
2022-10-18T05:02:32.527Z,101297.13
2022-10-18T05:05:01.427Z,101302.34
2022-10-18T05:07:31.088Z,101298.09
2022-10-18T05:09:59.566Z,101305.13
2022-10-18T05:12:27.820Z,101299.16
2022-10-18T05:14:56.825Z,101291.47
2022-10-18T05:17:25.016Z,101296.56
2022-10-18T05:19:53.960Z,101295.69
2022-10-18T05:22:22.098Z,101295.94
2022-10-18T05:24:52.235Z,101284.50
2022-10-18T05:27:21.857Z,101280.78
2022-10-18T05:29:50.167Z,101275.66
2022-10-18T05:32:18.484Z,101281.47
2022-10-18T05:34:46.563Z,101275.47
2022-10-18T05:37:14.711Z,101267.72
2022-10-18T05:39:42.932Z,101269.47
2022-10-18T05:42:13.510Z,101271.06
2022-10-18T05:44:41.738Z,101280.56
2022-10-18T05:47:09.829Z,101270.44
2022-10-18T05:49:38.129Z,101272.69
2022-10-18T05:52:07.218Z,101278.75
2022-10-18T05:54:35.301Z,101282.25
2022-10-18T05:57:03.396Z,101284.00
2022-10-18T05:59:32.827Z,101270.03
2022-10-18T06:02:00.984Z,101269.28
2022-10-18T06:04:29.131Z,101269.41
2022-10-18T06:06:57.255Z,101271.66
2022-10-18T06:09:26.064Z,101270.03
2022-10-18T06:11:54.526Z,101264.63
2022-10-18T06:14:22.580Z,101251.78
2022-10-18T06:16:52.158Z,101266.69
2022-10-18T06:19:21.419Z,101260.50
2022-10-18T06:21:49.664Z,101252.47
2022-10-18T06:24:18.556Z,101250.66
2022-10-18T06:26:46.797Z,101250.72
2022-10-18T06:29:15.535Z,101244.59
2022-10-18T06:31:43.683Z,101236.16
2022-10-18T06:34:13.377Z,101229.97
2022-10-18T06:36:41.517Z,101223.13
2022-10-18T06:39:09.998Z,101224.88
2022-10-18T06:41:38.720Z,101219.75
2022-10-18T06:44:20.154Z,101217.41
2022-10-18T06:46:49.950Z,101212.84
2022-10-18T06:49:19.610Z,101223.13
2022-10-18T06:51:48.274Z,101222.41
2022-10-18T06:54:18.753Z,101227.94
2022-10-18T06:56:47.227Z,101221.16
2022-10-18T06:59:18.229Z,101219.16
2022-10-18T07:01:47.565Z,101224.47
2022-10-18T07:04:15.868Z,101219.38
2022-10-18T07:06:46.089Z,101224.94
2022-10-18T07:09:14.442Z,101222.09
2022-10-18T07:11:42.650Z,101229.66
2022-10-18T07:14:15.382Z,101237.94
2022-10-18T07:16:44.991Z,101240.06
2022-10-18T07:19:16.361Z,101236.16
2022-10-18T07:21:47.346Z,101236.91
2022-10-18T07:24:15.827Z,101229.25
2022-10-18T07:26:44.083Z,101233.78
2022-10-18T07:29:14.458Z,101239.69
2022-10-18T07:31:42.705Z,101229.75
2022-10-18T07:34:13.900Z,101235.81
2022-10-18T07:36:42.623Z,101237.34
2022-10-18T07:39:12.546Z,101238.34
2022-10-18T07:41:41.247Z,101238.78
2022-10-18T07:44:09.922Z,101232.03
2022-10-18T07:46:38.432Z,101230.31
2022-10-18T07:49:07.199Z,101246.84
2022-10-18T07:51:36.375Z,101223.47
2022-10-18T07:54:05.082Z,101228.69
2022-10-18T07:56:35.003Z,101236.59
2022-10-18T07:59:03.416Z,101236.50
2022-10-18T08:01:31.712Z,101240.97
2022-10-18T08:04:06.178Z,101244.22
2022-10-18T08:06:36.515Z,101249.38
2022-10-18T08:09:05.516Z,101234.84
2022-10-18T08:11:36.226Z,101242.72
2022-10-18T08:14:05.177Z,101228.41
2022-10-18T08:16:33.586Z,101235.25
2022-10-18T08:19:02.034Z,101239.69
2022-10-18T08:21:31.658Z,101244.53
2022-10-18T08:24:00.232Z,101241.66
2022-10-18T08:26:28.694Z,101249.78
2022-10-18T08:29:17.781Z,101240.31
2022-10-18T08:31:46.582Z,101244.66
2022-10-18T08:34:24.628Z,101234.81
2022-10-18T08:36:52.800Z,101246.94
2022-10-18T08:39:21.726Z,101245.75
2022-10-18T08:42:20.107Z,101248.81
2022-10-18T08:44:51.936Z,101245.94
2022-10-18T08:47:23.288Z,101235.75
2022-10-18T08:49:55.413Z,101241.81
2022-10-18T08:52:33.574Z,101239.69
2022-10-18T08:55:04.769Z,101238.25
2022-10-18T08:57:34.049Z,101220.97
2022-10-18T09:00:16.368Z,101221.69
2022-10-18T09:03:06.610Z,101218.00
2022-10-18T09:05:46.443Z,101214.78
2022-10-18T09:08:33.647Z,101220.03
2022-10-18T09:11:19.387Z,101223.66
2022-10-18T09:14:11.329Z,101218.03
2022-10-18T09:16:51.533Z,101215.38
2022-10-18T09:19:32.787Z,101229.78
2022-10-18T09:22:09.882Z,101226.31
2022-10-18T09:24:42.345Z,101219.19
2022-10-18T09:27:17.614Z,101219.28
2022-10-18T09:29:59.804Z,101220.13
2022-10-18T09:32:43.912Z,101210.84
2022-10-18T09:35:18.861Z,101213.69
2022-10-18T09:37:49.084Z,101207.91
2022-10-18T09:40:21.064Z,101206.63
2022-10-18T09:42:56.034Z,101210.59
2022-10-18T09:45:29.032Z,101194.81
2022-10-18T09:48:06.985Z,101204.75
2022-10-18T09:50:39.782Z,101212.22
2022-10-18T09:53:17.073Z,101213.88
2022-10-18T09:55:57.646Z,101223.00
2022-10-18T09:58:30.907Z,101214.50
2022-10-18T10:01:00.023Z,101217.38
2022-10-18T10:03:29.853Z,101214.00
2022-10-18T10:06:16.092Z,101209.78
2022-10-18T10:08:49.809Z,101208.78
2022-10-18T10:11:33.970Z,101203.53
2022-10-18T10:16:48.787Z,101205.56
2022-10-18T10:19:26.202Z,101208.19
2022-10-18T10:22:01.689Z,101210.03
2022-10-18T10:24:44.359Z,101205.88
2022-10-18T10:27:19.405Z,101207.22
2022-10-18T10:30:00.387Z,101203.44
2022-10-18T10:32:32.903Z,101186.78
2022-10-18T10:35:02.592Z,101189.97
2022-10-18T10:37:35.770Z,101189.63
2022-10-18T10:40:21.203Z,101180.72
2022-10-18T10:43:19.659Z,101174.22
2022-10-18T10:46:08.968Z,101172.53
2022-10-18T10:48:46.884Z,101161.72
2022-10-18T10:51:18.449Z,101165.13
2022-10-18T10:53:52.785Z,101168.59
2022-10-18T10:56:26.832Z,101163.81
2022-10-18T10:58:59.274Z,101165.03
2022-10-18T11:01:33.293Z,101153.00
2022-10-18T11:04:04.726Z,101158.00
2022-10-18T11:06:55.626Z,101146.41
2022-10-18T11:09:51.491Z,101145.44
2022-10-18T11:12:28.164Z,101125.63
2022-10-18T11:15:05.796Z,101144.84
2022-10-18T11:17:41.524Z,101135.47
2022-10-18T11:20:24.470Z,101142.34
2022-10-18T11:23:01.234Z,101136.16
2022-10-18T11:25:42.198Z,101133.41
2022-10-18T11:28:18.263Z,101127.47
2022-10-18T11:30:59.561Z,101127.63
2022-10-18T11:36:36.574Z,101114.25
2022-10-18T11:39:15.076Z,101114.50
2022-10-18T11:41:51.281Z,101110.28
2022-10-18T11:44:29.419Z,101105.94
2022-10-18T11:47:09.722Z,101101.94
2022-10-18T11:49:52.019Z,101101.41
2022-10-18T11:52:25.022Z,101098.28
2022-10-18T11:55:20.642Z,101101.34
2022-10-18T11:57:59.015Z,101091.19
2022-10-18T12:00:40.501Z,101084.13
2022-10-18T12:03:21.332Z,101074.22
2022-10-18T12:05:52.285Z,101075.16
2022-10-18T12:08:24.672Z,101078.22
2022-10-18T12:11:06.159Z,101074.22
2022-10-18T12:13:40.432Z,101060.38
2022-10-18T12:16:10.825Z,101060.66
2022-10-18T12:21:25.481Z,101039.38
2022-10-18T12:23:57.727Z,101034.44
2022-10-18T12:26:29.369Z,101034.34
2022-10-18T12:29:12.181Z,101037.22
2022-10-18T12:31:44.744Z,101019.50
2022-10-18T12:34:28.235Z,101027.19
2022-10-18T12:37:34.178Z,101014.94
2022-10-18T12:40:12.420Z,101026.63
2022-10-18T12:42:46.567Z,101013.03
2022-10-18T12:45:25.683Z,101018.72
2022-10-18T12:47:54.626Z,101008.19
2022-10-18T12:50:31.780Z,101008.75
2022-10-18T12:53:14.624Z,101002.19
2022-10-18T12:55:45.087Z,100988.03
2022-10-18T12:58:32.694Z,100987.72
2022-10-18T13:01:08.133Z,100987.03
2022-10-18T13:04:00.636Z,100988.09
2022-10-18T13:07:08.046Z,100978.25
2022-10-18T13:09:39.673Z,100975.47
2022-10-18T13:12:46.227Z,100967.84
2022-10-18T13:15:34.337Z,100968.50
2022-10-18T13:18:15.785Z,100959.03
2022-10-18T13:20:49.760Z,100968.31
2022-10-18T13:23:37.804Z,100958.84
2022-10-18T13:26:17.467Z,100964.44
2022-10-18T13:28:53.639Z,100966.38
2022-10-18T13:31:27.909Z,100967.69
2022-10-18T13:33:56.197Z,100963.50
2022-10-18T13:36:26.435Z,100968.50
2022-10-18T13:39:07.317Z,100947.75
2022-10-18T13:42:09.009Z,100954.25
2022-10-18T13:44:40.438Z,100940.69
2022-10-18T13:47:14.054Z,100943.78
2022-10-18T13:50:18.086Z,100943.00
2022-10-18T13:53:18.322Z,100940.88
2022-10-18T13:55:59.908Z,100936.19
2022-10-18T13:58:48.905Z,100936.28
2022-10-18T14:01:32.611Z,100935.56
2022-10-18T14:04:28.095Z,100930.50
2022-10-18T14:07:02.303Z,100924.22
2022-10-18T14:09:44.522Z,100925.44
2022-10-18T14:12:23.080Z,100927.06
2022-10-18T14:14:58.138Z,100928.72
2022-10-18T14:17:36.644Z,100926.88
2022-10-18T14:20:18.218Z,100922.34
2022-10-18T14:22:50.965Z,100923.28
2022-10-18T14:25:28.008Z,100923.66
2022-10-18T14:28:14.158Z,100920.72
2022-10-18T14:30:57.764Z,100923.69
2022-10-18T14:33:35.349Z,100912.72
2022-10-18T14:36:11.578Z,100903.22
2022-10-18T14:38:52.953Z,100909.09
2022-10-18T14:41:23.846Z,100901.34
2022-10-18T14:43:53.070Z,100904.28
2022-10-18T14:46:27.235Z,100899.19
2022-10-18T14:49:00.423Z,100903.38
2022-10-18T14:51:31.450Z,100904.94
2022-10-18T14:53:59.820Z,100899.66
2022-10-18T14:56:30.953Z,100894.25
2022-10-18T14:59:03.715Z,100888.13
2022-10-18T15:01:36.405Z,100882.03
2022-10-18T15:04:09.539Z,100883.47
2022-10-18T15:06:37.941Z,100875.28
2022-10-18T15:09:07.937Z,100870.84
2022-10-18T15:11:36.386Z,100862.78
2022-10-18T15:14:08.703Z,100865.06
2022-10-18T15:16:39.535Z,100855.44
2022-10-18T15:19:29.250Z,100860.72
2022-10-18T15:25:16.786Z,100849.28
2022-10-18T15:27:47.637Z,100853.81
2022-10-18T15:30:20.892Z,100846.31
2022-10-18T15:32:52.465Z,100851.03
2022-10-18T15:35:26.497Z,100843.31
2022-10-18T15:37:56.221Z,100857.56
2022-10-18T15:40:34.482Z,100858.00
2022-10-18T15:43:05.912Z,100858.59
2022-10-18T15:45:37.643Z,100851.91
2022-10-18T15:48:23.569Z,100846.34
2022-10-18T15:50:54.595Z,100850.19
2022-10-18T15:53:34.135Z,100838.41
2022-10-18T15:56:06.499Z,100845.81
2022-10-18T15:58:44.116Z,100838.00
2022-10-18T16:01:17.764Z,100831.66
2022-10-18T16:03:47.979Z,100832.56
2022-10-18T16:06:19.016Z,100826.84
2022-10-18T16:08:49.664Z,100826.81
2022-10-18T16:11:19.634Z,100825.56
2022-10-18T16:13:49.305Z,100825.44
2022-10-18T16:16:20.122Z,100832.31
2022-10-18T16:18:48.465Z,100820.38
2022-10-18T16:21:23.681Z,100832.84
2022-10-18T16:23:52.639Z,100823.78
2022-10-18T16:26:22.379Z,100826.88
2022-10-18T16:28:51.275Z,100825.63
2022-10-18T16:31:21.850Z,100828.19
2022-10-18T16:33:52.568Z,100831.75
2022-10-18T16:36:24.077Z,100832.69
2022-10-18T16:38:54.972Z,100828.94
2022-10-18T16:41:23.946Z,100832.38
2022-10-18T16:43:52.536Z,100839.44
2022-10-18T16:46:22.763Z,100833.13
2022-10-18T16:48:52.476Z,100825.13
2022-10-18T16:51:23.121Z,100829.22
2022-10-18T16:53:53.349Z,100818.19
2022-10-18T16:56:23.731Z,100816.09
2022-10-18T16:58:52.552Z,100815.75
2022-10-18T17:01:24.959Z,100814.19
2022-10-18T17:03:55.488Z,100808.91
2022-10-18T17:06:27.559Z,100817.53
2022-10-18T17:08:56.450Z,100827.56
2022-10-18T17:11:26.814Z,100823.94
2022-10-18T17:13:55.801Z,100826.06
2022-10-18T17:18:59.448Z,100839.44
2022-10-18T17:21:30.732Z,100841.94
2022-10-18T17:24:01.068Z,100848.47
2022-10-18T17:26:30.304Z,100843.16
2022-10-18T17:29:01.120Z,100842.97
2022-10-18T17:31:30.103Z,100838.81
2022-10-18T17:34:01.661Z,100836.19
2022-10-18T17:36:33.928Z,100842.28
2022-10-18T17:39:02.619Z,100839.94
2022-10-18T17:41:30.995Z,100828.34
2022-10-18T17:43:59.239Z,100818.03
2022-10-18T17:46:27.438Z,100827.31
2022-10-18T17:48:55.550Z,100823.41
2022-10-18T17:51:24.339Z,100816.47
2022-10-18T17:53:55.098Z,100828.31
2022-10-18T17:56:23.227Z,100815.13
2022-10-18T17:58:52.122Z,100819.19
2022-10-18T18:01:23.046Z,100825.97
2022-10-18T18:03:52.270Z,100823.25
2022-10-18T18:06:23.546Z,100822.81
2022-10-18T18:08:53.338Z,100825.66
2022-10-18T18:11:21.828Z,100835.22
2022-10-18T18:13:49.939Z,100836.44
2022-10-18T18:16:20.545Z,100842.47
2022-10-18T18:18:51.605Z,100856.44
2022-10-18T18:21:20.607Z,100861.69
2022-10-18T18:23:49.661Z,100867.72
2022-10-18T18:26:20.597Z,100880.09
2022-10-18T18:28:49.486Z,100881.56
2022-10-18T18:31:19.534Z,100876.97
2022-10-18T18:33:47.841Z,100877.16
2022-10-18T18:36:18.054Z,100883.59
2022-10-18T18:38:46.355Z,100885.06
2022-10-18T18:41:16.396Z,100875.41
2022-10-18T18:43:50.525Z,100883.06
2022-10-18T18:46:19.330Z,100883.88
2022-10-18T18:48:47.886Z,100890.31
2022-10-18T18:51:18.091Z,100877.03
2022-10-18T18:53:47.757Z,100876.38
2022-10-18T18:56:18.392Z,100882.09
2022-10-18T18:58:48.752Z,100878.81
2022-10-18T19:01:19.552Z,100883.75
2022-10-18T19:03:49.991Z,100881.22
2022-10-18T19:06:20.443Z,100892.38
2022-10-18T19:08:49.629Z,100890.56
2022-10-18T19:11:20.798Z,100898.13
2022-10-18T19:13:51.549Z,100903.19
2022-10-18T19:16:23.086Z,100900.75
2022-10-18T19:18:53.190Z,100901.09
2022-10-18T19:21:22.482Z,100912.72
2022-10-18T19:23:51.313Z,100917.47
2022-10-18T19:26:30.043Z,100921.00
2022-10-18T19:29:07.388Z,100917.25
2022-10-18T19:31:37.144Z,100920.44
2022-10-18T19:34:07.660Z,100921.91
2022-10-18T19:36:36.695Z,100931.88
2022-10-18T19:39:06.123Z,100935.34
2022-10-18T19:41:34.479Z,100935.44
2022-10-18T19:44:04.264Z,100924.28
2022-10-18T19:46:32.998Z,100921.56
2022-10-18T19:49:01.539Z,100925.88
2022-10-18T19:51:29.927Z,100932.53
2022-10-18T19:53:58.664Z,100930.66
2022-10-18T19:56:29.012Z,100931.22
2022-10-18T19:58:58.318Z,100930.94
2022-10-18T20:01:29.372Z,100935.72
2022-10-18T20:03:57.707Z,100945.19
2022-10-18T20:06:25.829Z,100942.25
2022-10-18T20:08:54.652Z,100935.91
2022-10-18T20:11:24.852Z,100944.16
2022-10-18T20:13:54.029Z,100938.53
2022-10-18T20:16:28.188Z,100938.91
2022-10-18T20:19:00.427Z,100930.47
2022-10-18T20:21:30.662Z,100910.13
2022-10-18T20:23:59.505Z,100895.97
2022-10-18T20:26:27.710Z,100889.03
2022-10-18T20:28:58.233Z,100876.09
2022-10-18T20:31:28.847Z,100872.34
2022-10-18T20:34:00.436Z,100882.34
2022-10-18T20:36:30.147Z,100880.09
2022-10-18T20:38:58.714Z,100882.34
2022-10-18T20:41:28.801Z,100882.34
2022-10-18T20:43:59.896Z,100892.94
2022-10-18T20:46:30.561Z,100883.38
2022-10-18T20:49:00.615Z,100878.06
2022-10-18T20:51:28.993Z,100885.16
2022-10-18T20:53:57.904Z,100879.53
2022-10-18T20:56:27.564Z,100871.00
2022-10-18T20:58:58.147Z,100866.94
2022-10-18T21:01:28.922Z,100859.75
2022-10-18T21:04:01.487Z,100850.84
2022-10-18T21:06:30.959Z,100850.56
2022-10-18T21:09:01.178Z,100843.72
2022-10-18T21:11:31.295Z,100839.50
2022-10-18T21:14:02.721Z,100833.03
2022-10-18T21:16:31.599Z,100825.09
2022-10-18T21:19:04.510Z,100831.72
2022-10-18T21:21:33.338Z,100839.97
2022-10-18T21:24:05.314Z,100844.38
2022-10-18T21:26:38.490Z,100851.50
2022-10-18T21:29:07.350Z,100845.22
2022-10-18T21:31:39.222Z,100846.63
2022-10-18T21:34:13.269Z,100841.00
2022-10-18T21:36:42.562Z,100841.88
2022-10-18T21:39:14.864Z,100834.72
2022-10-18T21:41:43.529Z,100833.63
2022-10-18T21:44:12.141Z,100830.88
2022-10-18T21:46:43.033Z,100830.63
2022-10-18T21:49:12.691Z,100836.41
2022-10-18T21:51:41.527Z,100816.38
2022-10-18T21:54:14.045Z,100820.19
2022-10-18T21:56:42.499Z,100826.03
2022-10-18T21:59:12.895Z,100822.56
2022-10-18T22:01:43.691Z,100826.03
2022-10-18T22:04:21.471Z,100820.13
2022-10-18T22:06:49.772Z,100819.47
2022-10-18T22:09:18.263Z,100813.94
2022-10-18T22:11:49.636Z,100808.50
2022-10-18T22:14:18.029Z,100806.25
2022-10-18T22:16:46.484Z,100818.63
2022-10-18T22:19:15.191Z,100823.09
2022-10-18T22:21:45.273Z,100826.38
2022-10-18T22:24:13.758Z,100823.22
2022-10-18T22:26:43.641Z,100821.25
2022-10-18T22:29:15.266Z,100827.25
2022-10-18T22:31:45.587Z,100830.44
2022-10-18T22:34:17.139Z,100830.72
2022-10-18T22:36:47.318Z,100826.31
2022-10-18T22:39:16.898Z,100833.91
2022-10-18T22:41:45.517Z,100820.97
2022-10-18T22:44:15.176Z,100809.72
2022-10-18T22:46:43.811Z,100806.53
2022-10-18T22:49:12.676Z,100814.69
2022-10-18T22:51:41.042Z,100812.53
2022-10-18T22:54:11.037Z,100794.81
2022-10-18T22:56:40.275Z,100800.72
2022-10-18T22:59:09.137Z,100802.31
2022-10-18T23:01:37.934Z,100805.88
2022-10-18T23:04:06.402Z,100799.78
2022-10-18T23:06:36.680Z,100805.78
2022-10-18T23:09:07.566Z,100799.41
2022-10-18T23:11:38.447Z,100787.06
2022-10-18T23:14:08.507Z,100797.91
2022-10-18T23:16:37.816Z,100784.13
2022-10-18T23:19:06.397Z,100783.78
2022-10-18T23:21:35.531Z,100784.25
2022-10-18T23:24:04.020Z,100783.13
2022-10-18T23:26:32.579Z,100779.47
2022-10-18T23:29:02.883Z,100778.81
2022-10-18T23:31:33.337Z,100779.47
2022-10-18T23:34:03.584Z,100777.41
2022-10-18T23:36:33.737Z,100777.94
2022-10-18T23:39:02.130Z,100770.53
2022-10-18T23:41:30.535Z,100757.81
2022-10-18T23:43:59.267Z,100757.16
2022-10-18T23:46:28.946Z,100756.38
2022-10-18T23:48:57.172Z,100755.47
2022-10-18T23:51:25.613Z,100750.88
2022-10-18T23:53:53.874Z,100741.88
2022-10-18T23:56:22.241Z,100742.41
2022-10-18T23:58:50.577Z,100740.44
